Nearby METAR Reports

 

KOXC - Oxford/Waterbury, Connecticut, USA
Distance from station: NW 7mi, 11km
Updated: 11/21/2017 7:51am
Clear
Clear
 Wind from varies
Wind: varies 5 mph , 7 km/h
Temperature: 37°F , 3°C
Wind Chill: 33°F , 1°C
Dew Point: 25°F , -4°C
Humidity: 60%
Barometer: 30.12 inHg , 1020 hPa
Clouds: Clear
Visibility: 10 miles , 16 km
2017/11/21 12:51 KOXC 211251Z VRB04KT 10SM CLR 03/M04 A3012 RMK AO2 SLP217 T00281039
KHVN - New Haven/Tweed, Connecticut, USA
Distance from station: SE 13mi, 20km
Updated: 11/21/2017 7:53am
Few Clouds
Few Clouds
 Wind from varies
Wind: varies 5 mph , 7 km/h
Temperature: 45°F , 7°C
Wind Chill: 42°F , 6°C
Dew Point: 36°F , 2°C
Humidity: 71%
Barometer: 30.15 inHg , 1021 hPa
Clouds: Few Clouds
Visibility: 10 miles , 16 km
Cloud details: Few Clouds 25000 ft
2017/11/21 12:53 KHVN 211253Z VRB04KT 10SM FEW250 07/02 A3015 RMK AO2 SLP208 T00720017
 
KMMK - Meriden, Connecticut, USA
Distance from station: NE 13mi, 21km
Updated: 11/21/2017 7:53am
Clear
Clear
 Wind from SSE
Wind: SSE 7 mph , 11 km/h
Temperature: 36°F , 2°C
Wind Chill: 30°F , -1°C
Dew Point: 27°F , -3°C
Humidity: 70%
Barometer: 30.13 inHg , 1020.3 hPa
Clouds: Clear
Visibility: 10 miles , 16 km
2017/11/21 12:53 KMMK 211253Z AUTO 15006KT 10SM CLR 02/M03 A3013 RMK AO2 SLP205 T00221028
KBDR - Bridgeport, Connecticut, USA
Distance from station: SSW 17mi, 27km
Updated: 11/21/2017 7:52am
Clear
Clear
 Wind from SW
Wind: SW 14 mph , 22 km/h
Temperature: 46°F , 8°C
Wind Chill: 40°F , 4°C
Dew Point: 34°F , 1°C
Humidity: 62%
Barometer: 30.14 inHg , 1020.7 hPa
Clouds: Clear
Visibility: 10 miles , 16 km
2017/11/21 12:52 KBDR 211252Z 23012KT 10SM CLR 08/01 A3014 RMK AO2 SLP207 T00830006
 
KDXR - Danbury, Connecticut, USA
Distance from station: W 23mi, 38km
Updated: 11/21/2017 7:53am
Clear
Clear
 Wind from SSW
Wind: SSW 13 mph , 20 km/h
Temperature: 43°F , 6°C
Wind Chill: 36°F , 2°C
Dew Point: 28°F , -2°C
Humidity: 57%
Barometer: 30.12 inHg , 1020 hPa
Clouds: Clear
Visibility: 10 miles , 16 km
2017/11/21 12:53 KDXR 211253Z 21011KT 10SM CLR 06/M02 A3012 RMK AO2 SLP202 T00561022